Time;durP1;ratioP1;P1;durP2;ratioP2;P2;SDS_P1;SDS_P2;PMS_P1;PMS_P2;Temp;Humidity;BMP_temperature;BMP_pressure;BME280_temperature;BME280_humidity;BME280_pressure;Samples;Min_cycle;Max_cycle;Signal;HPM_P1;HPM_P2
2023/12/23 00:00:55;;;;;;;8.18;1.75;;;;;;;6.03;100.00;100891.94;5052161;28;20095;-60
2023/12/23 00:03:21;;;;;;;10.98;2.00;;;;;;;6.02;100.00;100904.03;5060361;28;20070;-60
2023/12/23 00:05:46;;;;;;;16.42;2.47;;;;;;;6.05;100.00;100896.06;5037913;28;20030;-60
2023/12/23 00:08:11;;;;;;;12.68;1.88;;;;;;;6.01;100.00;100894.13;5053599;28;20495;-59
2023/12/23 00:10:37;;;;;;;15.95;2.10;;;;;;;5.99;100.00;100904.56;5031767;28;20079;-61
2023/12/23 00:13:02;;;;;;;10.63;1.92;;;;;;;5.98;100.00;100898.22;5036461;28;20141;-60
2023/12/23 00:15:27;;;;;;;9.95;1.80;;;;;;;5.99;100.00;100891.66;5044560;28;20034;-59
2023/12/23 00:17:53;;;;;;;11.85;1.92;;;;;;;5.94;100.00;100895.22;5036366;28;20017;-61
2023/12/23 00:20:18;;;;;;;10.50;1.85;;;;;;;5.92;100.00;100897.41;5042764;28;20033;-61
2023/12/23 00:22:43;;;;;;;11.23;2.00;;;;;;;5.96;100.00;100891.38;5034257;28;20029;-61
2023/12/23 00:25:08;;;;;;;11.30;1.90;;;;;;;5.92;100.00;100880.91;5055043;28;20047;-61
2023/12/23 00:27:34;;;;;;;11.20;2.15;;;;;;;5.93;100.00;100890.81;5044936;28;20053;-61
2023/12/23 00:29:59;;;;;;;15.93;2.90;;;;;;;5.90;100.00;100891.34;5049777;28;20045;-62
2023/12/23 00:32:25;;;;;;;13.75;2.28;;;;;;;5.91;100.00;100897.69;5051667;28;20503;-62
2023/12/23 00:34:50;;;;;;;9.82;2.25;;;;;;;5.88;100.00;100892.72;5055880;28;20504;-62
2023/12/23 00:37:16;;;;;;;16.00;2.10;;;;;;;5.85;100.00;100872.13;5036078;28;20029;-62
2023/12/23 00:39:41;;;;;;;7.57;1.85;;;;;;;5.87;100.00;100877.34;5047307;28;20017;-63
2023/12/23 00:42:06;;;;;;;10.80;1.92;;;;;;;5.88;100.00;100876.25;5056159;28;20051;-62
2023/12/23 00:44:32;;;;;;;12.05;2.33;;;;;;;5.90;100.00;100882.28;5051352;28;20035;-61
2023/12/23 00:46:57;;;;;;;9.70;2.00;;;;;;;5.91;100.00;100876.53;5051515;28;20550;-62
2023/12/23 00:49:22;;;;;;;15.90;2.53;;;;;;;5.94;100.00;100864.19;5043603;28;20025;-63
2023/12/23 00:51:47;;;;;;;15.68;2.63;;;;;;;5.93;100.00;100866.09;5034469;28;20033;-62
2023/12/23 00:54:13;;;;;;;12.73;2.25;;;;;;;5.94;100.00;100855.94;5053198;28;20025;-62
2023/12/23 00:56:38;;;;;;;12.38;2.60;;;;;;;5.96;100.00;100870.22;5064518;28;20035;-61
2023/12/23 00:59:03;;;;;;;13.45;2.20;;;;;;;5.94;100.00;100866.94;5049745;28;20373;-61
2023/12/23 01:01:29;;;;;;;10.00;2.20;;;;;;;5.96;100.00;100872.13;5051439;28;20142;-60
2023/12/23 01:03:54;;;;;;;8.88;2.17;;;;;;;5.99;100.00;100866.94;5051764;28;20427;-60
2023/12/23 01:06:19;;;;;;;12.73;2.65;;;;;;;6.01;100.00;100858.44;5047701;28;20033;-60
2023/12/23 01:08:44;;;;;;;15.73;2.85;;;;;;;6.01;100.00;100862.00;5037270;28;20016;-60
2023/12/23 01:11:10;;;;;;;11.48;2.35;;;;;;;6.00;100.00;100846.63;5057566;28;20371;-61
2023/12/23 01:13:36;;;;;;;14.68;2.53;;;;;;;6.03;100.00;100850.75;5053653;28;20119;-61
2023/12/23 01:16:02;;;;;;;12.95;2.70;;;;;;;6.01;100.00;100848.28;5051098;28;20029;-62
2023/12/23 01:18:27;;;;;;;14.48;2.78;;;;;;;6.06;100.00;100844.72;5045633;28;20033;-61
2023/12/23 01:20:53;;;;;;;15.10;2.92;;;;;;;6.08;100.00;100842.53;5047005;28;20025;-63
2023/12/23 01:23:18;;;;;;;15.85;3.20;;;;;;;6.09;100.00;100838.69;5070480;28;20032;-62
2023/12/23 01:25:44;;;;;;;15.35;2.80;;;;;;;6.09;100.00;100836.75;5056065;28;20499;-63
2023/12/23 01:28:10;;;;;;;12.55;2.70;;;;;;;6.11;100.00;100836.47;5030897;28;20462;-63
2023/12/23 01:30:35;;;;;;;12.77;3.00;;;;;;;6.13;100.00;100837.00;5038901;28;20485;-60
2023/12/23 01:33:00;;;;;;;16.63;3.35;;;;;;;6.14;100.00;100827.66;5050776;28;20033;-61
2023/12/23 01:35:26;;;;;;;14.82;2.95;;;;;;;6.14;100.00;100829.59;5048762;28;20036;-61
2023/12/23 01:37:51;;;;;;;18.30;3.22;;;;;;;6.16;100.00;100830.13;5051112;28;20350;-60
2023/12/23 01:40:17;;;;;;;11.77;2.65;;;;;;;6.17;100.00;100815.31;5033955;28;20524;-62
2023/12/23 01:42:42;;;;;;;18.20;3.40;;;;;;;6.19;100.00;100808.41;5045989;28;20024;-61
2023/12/23 01:45:08;;;;;;;15.68;3.03;;;;;;;6.20;100.00;100807.31;5049471;28;20081;-62
2023/12/23 01:47:37;;;;;;;14.27;2.85;;;;;;;6.23;100.00;100812.28;5039239;28;20021;-61
2023/12/23 01:50:03;;;;;;;15.02;2.95;;;;;;;6.24;100.00;100799.34;5038855;28;20032;-61
2023/12/23 01:52:30;;;;;;;16.65;3.17;;;;;;;6.29;100.00;100796.59;5039446;28;20354;-61
2023/12/23 01:54:56;;;;;;;17.52;2.90;;;;;;;6.36;100.00;100802.63;5037799;28;20029;-62
2023/12/23 01:57:21;;;;;;;15.75;3.00;;;;;;;6.43;100.00;100796.84;5037124;28;20049;-60
2023/12/23 01:59:47;;;;;;;19.77;2.92;;;;;;;6.48;100.00;100807.00;5043485;28;20374;-61
2023/12/23 02:02:12;;;;;;;15.95;3.03;;;;;;;6.55;100.00;100796.53;5049717;28;20031;-61
2023/12/23 02:04:38;;;;;;;16.15;2.90;;;;;;;6.63;100.00;100789.63;5052239;28;20484;-62
2023/12/23 02:07:03;;;;;;;17.98;3.25;;;;;;;6.69;100.00;100777.50;5053998;28;20028;-62
2023/12/23 02:09:29;;;;;;;17.17;3.35;;;;;;;6.82;100.00;100782.41;5062599;28;20493;-61
2023/12/23 02:12:15;;;;;;;17.60;3.10;;;;;;;6.87;100.00;100785.09;5047501;28;20511;-62
2023/12/23 02:15:04;;;;;;;14.30;2.55;;;;;;;6.99;100.00;100778.47;5050366;28;20033;-61
2023/12/23 02:17:30;;;;;;;15.35;2.70;;;;;;;7.08;100.00;100790.50;5050181;28;20028;-62
2023/12/23 02:19:55;;;;;;;18.60;3.08;;;;;;;7.13;100.00;100770.41;5046338;28;20058;-61
2023/12/23 02:22:20;;;;;;;16.85;3.28;;;;;;;7.22;100.00;100781.63;5034534;28;20112;-61
2023/12/23 02:24:46;;;;;;;15.95;2.67;;;;;;;7.25;100.00;100765.38;5050700;28;20123;-61
2023/12/23 02:27:14;;;;;;;17.52;2.90;;;;;;;7.27;100.00;100768.66;5052880;28;20028;-60
2023/12/23 02:29:41;;;;;;;14.30;2.60;;;;;;;7.25;100.00;100773.63;5049782;28;20033;-61
2023/12/23 02:32:09;;;;;;;11.50;2.53;;;;;;;7.31;100.00;100772.47;5034675;28;20030;-61
2023/12/23 02:34:36;;;;;;;18.23;3.63;;;;;;;7.30;100.00;100762.56;5050528;28;20029;-62
2023/12/23 02:37:01;;;;;;;12.45;2.50;;;;;;;7.28;100.00;100762.03;5052369;28;20475;-61
2023/12/23 02:39:26;;;;;;;17.67;3.22;;;;;;;7.32;100.00;100759.56;5054652;28;20171;-61
2023/12/23 02:41:52;;;;;;;16.63;3.30;;;;;;;7.38;100.00;100752.06;5050790;28;20499;-61
2023/12/23 02:44:17;;;;;;;14.07;2.60;;;;;;;7.36;100.00;100752.34;5051457;28;20102;-62
2023/12/23 02:46:42;;;;;;;13.88;2.53;;;;;;;7.41;100.00;100746.00;5033896;28;20426;-62
2023/12/23 02:49:07;;;;;;;17.13;2.72;;;;;;;7.41;100.00;100749.56;5036343;28;20116;-62
2023/12/23 02:51:33;;;;;;;13.55;2.60;;;;;;;7.46;100.00;100748.72;5055103;28;20094;-62
2023/12/23 02:53:58;;;;;;;15.50;2.53;;;;;;;7.47;100.00;100745.66;5037716;28;20397;-61
2023/12/23 02:56:23;;;;;;;20.60;3.22;;;;;;;7.45;100.00;100747.06;5050464;28;20029;-62
2023/12/23 02:58:48;;;;;;;17.23;2.75;;;;;;;7.47;100.00;100737.41;5039478;28;20536;-61
2023/12/23 03:01:14;;;;;;;17.02;3.22;;;;;;;7.50;100.00;100741.50;5051562;28;20115;-61
2023/12/23 03:03:39;;;;;;;16.13;2.80;;;;;;;7.50;100.00;100736.00;5053515;28;20021;-61
2023/12/23 03:06:04;;;;;;;18.83;2.60;;;;;;;7.51;100.00;100734.09;5041736;28;20057;-61
2023/12/23 03:08:30;;;;;;;12.98;2.55;;;;;;;7.49;100.00;100726.94;5038764;28;20031;-62
2023/12/23 03:10:55;;;;;;;12.43;2.25;;;;;;;7.45;100.00;100725.06;5042393;28;20084;-63
2023/12/23 03:13:20;;;;;;;15.25;2.95;;;;;;;7.44;100.00;100729.72;5033150;28;20118;-61
2023/12/23 03:15:46;;;;;;;17.85;3.38;;;;;;;7.45;100.00;100722.28;5055209;28;20032;-60
2023/12/23 03:18:12;;;;;;;13.00;2.88;;;;;;;7.46;100.00;100723.94;5073168;28;20041;-61
2023/12/23 03:20:37;;;;;;;18.48;2.72;;;;;;;7.48;100.00;100724.44;5059342;28;20025;-62
2023/12/23 03:23:03;;;;;;;16.75;2.90;;;;;;;7.52;100.00;100721.94;5053057;28;20453;-61
2023/12/23 03:25:29;;;;;;;17.83;2.70;;;;;;;7.53;100.00;100718.91;5063432;28;20046;-61
2023/12/23 03:27:54;;;;;;;13.85;2.75;;;;;;;7.56;100.00;100728.53;5057408;28;20455;-61
2023/12/23 03:30:19;;;;;;;19.98;3.00;;;;;;;7.57;100.00;100719.97;5047691;28;20017;-61
2023/12/23 03:32:45;;;;;;;19.48;3.13;;;;;;;7.63;100.00;100721.59;5062860;28;20052;-60
2023/12/23 03:35:10;;;;;;;16.25;2.83;;;;;;;7.66;100.00;100714.66;5053795;28;20082;-61
2023/12/23 03:37:35;;;;;;;13.32;3.13;;;;;;;7.67;100.00;100712.72;5053634;28;20068;-61
2023/12/23 03:40:00;;;;;;;13.80;2.80;;;;;;;7.67;100.00;100699.78;5044685;28;20402;-60
2023/12/23 03:42:26;;;;;;;16.52;2.70;;;;;;;7.70;100.00;100698.38;5051987;28;20108;-60
2023/12/23 03:44:51;;;;;;;14.00;2.40;;;;;;;7.70;100.00;100695.63;5063461;28;20102;-60
2023/12/23 03:47:17;;;;;;;15.30;2.88;;;;;;;7.70;100.00;100704.69;5071087;28;20126;-62
2023/12/23 03:49:42;;;;;;;15.15;2.50;;;;;;;7.77;100.00;100688.69;5041155;28;20028;-62
2023/12/23 03:52:07;;;;;;;17.88;2.90;;;;;;;7.80;100.00;100709.31;5057473;28;20063;-61
2023/12/23 03:54:33;;;;;;;13.07;2.60;;;;;;;7.81;100.00;100695.22;5045071;28;20359;-61
2023/12/23 03:56:58;;;;;;;14.30;2.55;;;;;;;7.82;100.00;100701.59;5048274;28;20118;-61
2023/12/23 03:59:23;;;;;;;10.82;2.30;;;;;;;7.80;100.00;100701.84;5060263;28;20066;-62
2023/12/23 04:01:49;;;;;;;13.75;2.28;;;;;;;7.80;100.00;100714.81;5070075;28;20411;-61
2023/12/23 04:04:14;;;;;;;16.25;2.65;;;;;;;7.83;100.00;100696.88;5054211;28;20029;-61
2023/12/23 04:06:39;;;;;;;13.85;2.70;;;;;;;7.90;100.00;100694.59;5059412;28;20598;-61
2023/12/23 04:09:06;;;;;;;11.90;2.53;;;;;;;7.88;100.00;100692.16;5034528;28;20528;-61
2023/12/23 04:11:35;;;;;;;15.18;2.75;;;;;;;7.87;100.00;100692.44;5053010;28;20488;-61
2023/12/23 04:14:00;;;;;;;16.00;2.60;;;;;;;7.89;100.00;100681.94;5034343;28;20061;-61
2023/12/23 04:16:25;;;;;;;14.70;2.53;;;;;;;7.92;100.00;100686.88;5045955;28;20402;-61
2023/12/23 04:18:50;;;;;;;15.35;2.60;;;;;;;7.95;100.00;100692.59;5056332;28;20036;-61
2023/12/23 04:21:16;;;;;;;18.00;2.80;;;;;;;7.93;100.00;100683.00;5053915;28;20044;-59
2023/12/23 04:23:41;;;;;;;13.70;2.70;;;;;;;7.95;100.00;100667.00;5048424;28;20033;-60
2023/12/23 04:26:06;;;;;;;12.82;2.45;;;;;;;7.88;100.00;100669.31;5051888;28;20032;-61
2023/12/23 04:28:32;;;;;;;15.35;2.83;;;;;;;7.94;100.00;100662.63;5036911;28;20440;-60
2023/12/23 04:30:57;;;;;;;16.60;2.88;;;;;;;7.92;100.00;100656.56;5042700;28;20086;-60
2023/12/23 04:33:23;;;;;;;15.10;2.58;;;;;;;7.91;100.00;100639.22;5032071;28;20384;-61
2023/12/23 04:35:49;;;;;;;16.20;3.20;;;;;;;7.89;100.00;100657.97;5047473;28;20025;-59
2023/12/23 04:38:14;;;;;;;14.13;3.00;;;;;;;7.93;100.00;100636.19;5042368;28;20088;-59
2023/12/23 04:40:41;;;;;;;14.00;2.58;;;;;;;7.90;100.00;100632.09;5049535;28;20515;-60
2023/12/23 04:43:06;;;;;;;18.02;3.15;;;;;;;7.93;100.00;100638.94;5051217;28;20082;-60
2023/12/23 04:45:31;;;;;;;14.52;2.58;;;;;;;7.91;100.00;100641.16;5045791;28;20029;-60
2023/12/23 04:47:57;;;;;;;14.80;2.60;;;;;;;7.89;100.00;100632.34;5065488;28;20090;-60
2023/12/23 04:50:22;;;;;;;15.13;2.80;;;;;;;7.91;100.00;100652.16;5045381;28;20040;-60
2023/12/23 04:52:47;;;;;;;15.43;2.75;;;;;;;7.89;100.00;100657.13;5061621;28;20392;-60
2023/12/23 04:55:13;;;;;;;14.13;2.50;;;;;;;7.98;100.00;100652.66;5050621;28;20052;-59
2023/12/23 04:57:38;;;;;;;17.92;2.70;;;;;;;7.98;100.00;100658.16;5050964;28;20053;-60
2023/12/23 05:00:06;;;;;;;13.98;2.90;;;;;;;7.93;100.00;100641.69;5061446;28;20052;-60
2023/12/23 05:02:33;;;;;;;15.52;2.55;;;;;;;7.89;100.00;100635.09;5043484;28;20553;-60
2023/12/23 05:04:58;;;;;;;16.40;2.83;;;;;;;7.97;100.00;100645.50;5036568;28;20038;-60
2023/12/23 05:07:24;;;;;;;11.90;2.35;;;;;;;7.94;100.00;100646.09;5052221;28;20039;-59
2023/12/23 05:09:50;;;;;;;14.32;2.60;;;;;;;7.95;100.00;100659.56;5060358;28;20438;-59
2023/12/23 05:12:15;;;;;;;11.50;2.63;;;;;;;7.99;100.00;100653.47;5053335;28;20032;-59
2023/12/23 05:14:40;;;;;;;16.23;2.67;;;;;;;7.97;100.00;100648.25;5053000;28;20074;-61
2023/12/23 05:17:06;;;;;;;15.90;2.60;;;;;;;7.97;100.00;100632.53;5043184;28;20107;-60
2023/12/23 05:19:31;;;;;;;16.60;2.80;;;;;;;7.99;100.00;100642.44;5053358;28;20021;-61
2023/12/23 05:21:56;;;;;;;13.18;2.28;;;;;;;8.03;100.00;100626.97;5050820;28;20051;-62
2023/12/23 05:24:22;;;;;;;14.52;2.55;;;;;;;8.04;100.00;100632.19;5036195;28;20029;-61
2023/12/23 05:26:47;;;;;;;13.65;2.42;;;;;;;8.04;100.00;100626.69;5060411;28;20017;-60
2023/12/23 05:29:12;;;;;;;15.60;2.60;;;;;;;7.99;100.00;100629.47;5055812;28;20036;-61
2023/12/23 05:31:37;;;;;;;11.10;2.40;;;;;;;8.01;100.00;100627.25;5050585;28;20022;-60
2023/12/23 05:34:03;;;;;;;15.25;3.35;;;;;;;8.01;100.00;100635.53;5051893;28;20025;-61
2023/12/23 05:36:28;;;;;;;16.88;2.83;;;;;;;8.02;100.00;100619.84;5047285;28;20496;-61
2023/12/23 05:38:53;;;;;;;15.13;2.40;;;;;;;8.03;100.00;100621.47;5037819;28;20030;-61
2023/12/23 05:41:19;;;;;;;14.30;2.60;;;;;;;8.01;100.00;100610.72;5037904;28;20071;-63
2023/12/23 05:43:44;;;;;;;18.27;2.83;;;;;;;8.04;100.00;100625.84;5036865;28;20111;-62
2023/12/23 05:46:09;;;;;;;13.52;2.42;;;;;;;8.02;100.00;100617.88;5040091;28;20686;-61
2023/12/23 05:48:34;;;;;;;13.85;2.78;;;;;;;8.06;100.00;100640.16;5038181;28;20031;-62
2023/12/23 05:51:00;;;;;;;19.63;3.15;;;;;;;8.07;100.00;100634.38;5037135;28;20106;-63
2023/12/23 05:53:25;;;;;;;18.70;2.83;;;;;;;8.10;100.00;100631.00;5041998;28;20443;-62
2023/12/23 05:55:50;;;;;;;15.68;2.80;;;;;;;8.07;100.00;100628.84;5038788;28;20036;-62
2023/12/23 05:58:16;;;;;;;15.00;2.63;;;;;;;8.14;100.00;100622.16;5039916;28;20056;-62
2023/12/23 06:00:41;;;;;;;13.50;2.72;;;;;;;8.15;100.00;100619.09;5034547;28;20033;-62
2023/12/23 06:03:06;;;;;;;13.05;2.70;;;;;;;8.07;100.00;100620.59;5040135;28;20021;-63
2023/12/23 06:05:32;;;;;;;17.20;2.70;;;;;;;8.17;100.00;100630.66;5037348;28;20038;-62
2023/12/23 06:07:58;;;;;;;18.13;2.95;;;;;;;8.18;100.00;100643.31;5036113;28;20390;-62
2023/12/23 06:10:23;;;;;;;14.35;2.80;;;;;;;8.20;100.00;100626.47;5038894;28;20496;-62
2023/12/23 06:12:49;;;;;;;17.17;3.00;;;;;;;8.15;100.00;100616.34;5038490;28;20026;-62
2023/12/23 06:15:15;;;;;;;19.70;3.30;;;;;;;8.12;100.00;100609.50;5035863;28;20021;-62
2023/12/23 06:17:40;;;;;;;17.70;3.25;;;;;;;8.08;100.00;100610.38;5031238;28;20037;-63
2023/12/23 06:20:06;;;;;;;17.05;3.10;;;;;;;8.07;100.00;100617.00;5033532;28;20037;-63
2023/12/23 06:22:31;;;;;;;17.40;2.88;;;;;;;8.07;100.00;100611.50;5053711;28;20526;-62
2023/12/23 06:24:56;;;;;;;14.57;2.50;;;;;;;8.07;100.00;100636.28;5047742;28;20086;-62
2023/12/23 06:27:22;;;;;;;19.20;3.00;;;;;;;8.08;100.00;100622.19;5039209;28;20377;-61
2023/12/23 06:29:47;;;;;;;15.27;3.10;;;;;;;8.05;100.00;100621.97;5030630;28;20029;-63
2023/12/23 06:32:13;;;;;;;20.10;3.10;;;;;;;8.03;100.00;100624.22;5046184;28;20396;-62
2023/12/23 06:34:38;;;;;;;17.63;3.13;;;;;;;8.04;100.00;100614.81;5033166;28;20029;-61
2023/12/23 06:37:03;;;;;;;16.13;2.75;;;;;;;8.07;100.00;100641.78;5038062;28;20112;-61
2023/12/23 06:39:30;;;;;;;17.85;2.90;;;;;;;8.00;100.00;100616.53;5041318;28;20021;-62
2023/12/23 06:41:55;;;;;;;19.45;3.38;;;;;;;8.07;100.00;100628.03;5039091;28;20064;-62
2023/12/23 06:44:21;;;;;;;20.88;3.30;;;;;;;8.13;100.00;100626.81;5039163;28;20056;-61
2023/12/23 06:46:47;;;;;;;13.90;3.05;;;;;;;8.11;100.00;100605.09;5038618;28;20135;-61
2023/12/23 06:49:12;;;;;;;14.23;2.60;;;;;;;8.11;100.00;100613.34;5043729;28;20508;-60
2023/12/23 06:51:37;;;;;;;16.52;3.38;;;;;;;8.13;100.00;100621.31;5046567;28;20043;-65
2023/12/23 06:54:03;;;;;;;17.35;3.10;;;;;;;8.12;100.00;100611.44;5052228;28;20041;-65
2023/12/23 06:56:28;;;;;;;16.08;3.00;;;;;;;8.18;100.00;100621.28;5034124;28;20047;-64
2023/12/23 06:58:53;;;;;;;17.17;3.17;;;;;;;8.15;100.00;100608.06;5052313;28;20464;-62
2023/12/23 07:01:19;;;;;;;15.25;2.97;;;;;;;8.18;100.00;100624.03;5057643;28;20146;-62
2023/12/23 07:03:44;;;;;;;16.25;3.00;;;;;;;8.19;100.00;100614.66;5051916;28;20027;-63
2023/12/23 07:06:13;;;;;;;18.52;2.88;;;;;;;8.28;100.00;100628.56;5056333;28;20075;-64
2023/12/23 07:08:39;;;;;;;16.67;3.60;;;;;;;8.24;100.00;100606.28;5070452;28;20360;-64
2023/12/23 07:11:05;;;;;;;15.85;2.85;;;;;;;8.23;100.00;100612.13;5057403;28;20033;-63
2023/12/23 07:13:30;;;;;;;15.07;2.53;;;;;;;8.24;100.00;100609.06;5071468;28;20032;-64
2023/12/23 07:15:56;;;;;;;13.63;2.50;;;;;;;8.23;100.00;100599.16;5061285;28;20083;-63
2023/12/23 07:18:21;;;;;;;15.10;3.22;;;;;;;8.23;100.00;100609.34;5052365;28;20083;-63
2023/12/23 07:20:47;;;;;;;18.42;2.80;;;;;;;8.25;100.00;100599.66;5051111;28;20457;-63
2023/12/23 07:23:15;;;;;;;15.00;2.80;;;;;;;8.29;100.00;100619.19;5041129;28;20041;-64
2023/12/23 07:25:40;;;;;;;15.85;2.92;;;;;;;8.32;100.00;100620.53;5029376;28;20083;-63
2023/12/23 07:28:06;;;;;;;15.32;2.80;;;;;;;8.32;100.00;100615.84;5051954;28;20040;-64
2023/12/23 07:30:31;;;;;;;17.30;3.20;;;;;;;8.37;100.00;100624.03;5054099;28;20136;-64
2023/12/23 07:32:57;;;;;;;13.10;2.45;;;;;;;8.43;100.00;100633.06;5051152;28;20028;-64
2023/12/23 07:35:22;;;;;;;17.17;3.38;;;;;;;8.41;100.00;100616.81;5058873;28;20471;-64
2023/12/23 07:37:47;;;;;;;14.50;2.60;;;;;;;8.40;100.00;100623.44;5049172;28;20401;-64
2023/12/23 07:40:13;;;;;;;13.85;2.67;;;;;;;8.47;100.00;100622.25;5044007;28;20088;-65
2023/12/23 07:42:38;;;;;;;17.13;2.63;;;;;;;8.44;100.00;100634.69;5040506;28;20036;-65
2023/12/23 07:45:04;;;;;;;14.77;3.80;;;;;;;8.48;100.00;100621.16;5039961;28;20037;-65
2023/12/23 07:47:30;;;;;;;14.25;2.88;;;;;;;8.48;100.00;100630.28;5035926;28;20108;-65
2023/12/23 07:49:55;;;;;;;13.50;2.95;;;;;;;8.52;100.00;100611.19;5041727;28;20039;-66
2023/12/23 07:52:20;;;;;;;13.80;2.70;;;;;;;8.50;100.00;100617.00;5037050;28;20033;-64
2023/12/23 07:54:46;;;;;;;16.98;3.30;;;;;;;8.52;100.00;100613.97;5042493;28;20024;-64
2023/12/23 07:57:11;;;;;;;14.68;2.80;;;;;;;8.53;100.00;100634.91;5037448;28;20503;-66
2023/12/23 07:59:38;;;;;;;17.90;3.10;;;;;;;8.54;100.00;100634.59;5039085;28;20024;-63
2023/12/23 08:02:04;;;;;;;15.70;2.58;;;;;;;8.59;100.00;100639.22;5037550;28;20103;-63
2023/12/23 08:04:31;;;;;;;19.08;2.80;;;;;;;8.55;100.00;100639.00;5038773;28;20037;-64
2023/12/23 08:06:56;;;;;;;15.68;2.78;;;;;;;8.60;100.00;100629.81;5036733;28;20035;-65
2023/12/23 08:09:21;;;;;;;13.40;2.92;;;;;;;8.58;100.00;100645.84;5034227;28;20044;-64
2023/12/23 08:11:47;;;;;;;15.25;2.50;;;;;;;8.63;100.00;100634.75;5036457;28;20030;-64
2023/12/23 08:14:12;;;;;;;16.65;2.72;;;;;;;8.69;100.00;100632.75;5046840;28;20056;-64
2023/12/23 08:16:37;;;;;;;12.30;2.42;;;;;;;8.70;100.00;100634.34;5041170;28;20077;-65
2023/12/23 08:19:02;;;;;;;15.02;3.00;;;;;;;8.67;100.00;100638.53;5038595;28;20053;-65
2023/12/23 08:21:28;;;;;;;14.25;2.95;;;;;;;8.69;100.00;100639.06;5037986;28;20469;-64
2023/12/23 08:23:53;;;;;;;15.65;2.67;;;;;;;8.72;100.00;100644.00;5040294;28;20025;-64
2023/12/23 08:26:19;;;;;;;14.20;2.85;;;;;;;8.71;100.00;100636.00;5035310;28;20028;-65
2023/12/23 08:28:45;;;;;;;15.45;2.95;;;;;;;8.74;100.00;100644.50;5041062;28;20178;-65
2023/12/23 08:31:10;;;;;;;16.38;2.90;;;;;;;8.75;100.00;100656.38;5036424;28;20035;-64
2023/12/23 08:33:36;;;;;;;14.30;2.33;;;;;;;8.75;100.00;100670.16;5038973;28;20041;-64
2023/12/23 08:36:01;;;;;;;15.95;3.15;;;;;;;8.80;100.00;100652.72;5033242;28;20377;-64
2023/12/23 08:38:27;;;;;;;11.45;2.20;;;;;;;8.85;100.00;100641.59;5037107;28;20104;-65
2023/12/23 08:40:52;;;;;;;14.88;2.38;;;;;;;8.85;100.00;100641.59;5037097;28;20029;-65
2023/12/23 08:43:17;;;;;;;9.30;2.17;;;;;;;8.86;100.00;100663.38;5037477;28;20029;-64
2023/12/23 08:45:42;;;;;;;16.75;2.60;;;;;;;8.82;100.00;100653.22;5034995;28;20033;-64
2023/12/23 08:48:08;;;;;;;13.18;2.47;;;;;;;8.85;100.00;100642.41;5049196;28;20388;-64
2023/12/23 08:50:33;;;;;;;11.38;2.50;;;;;;;8.88;100.00;100644.56;5043968;28;20032;-65
2023/12/23 08:52:59;;;;;;;12.95;2.35;;;;;;;8.88;100.00;100672.16;5041064;28;20036;-65
2023/12/23 08:55:24;;;;;;;12.77;2.33;;;;;;;8.93;100.00;100651.94;5041229;28;20040;-65
2023/12/23 08:57:49;;;;;;;13.15;2.70;;;;;;;8.90;100.00;100658.06;5033308;28;20469;-65
2023/12/23 09:00:15;;;;;;;13.25;2.33;;;;;;;8.92;100.00;100658.59;5035325;28;20048;-65
2023/12/23 09:02:40;;;;;;;12.57;2.35;;;;;;;8.95;100.00;100663.50;5042847;28;20028;-66
2023/12/23 09:05:06;;;;;;;8.60;2.10;;;;;;;8.93;100.00;100681.47;5039679;28;20546;-65
2023/12/23 09:07:31;;;;;;;14.70;2.30;;;;;;;8.90;100.00;100685.66;5039452;28;20124;-65
2023/12/23 09:09:57;;;;;;;15.88;2.80;;;;;;;8.89;100.00;100682.06;5043774;28;20489;-65
2023/12/23 09:12:22;;;;;;;15.23;2.60;;;;;;;8.82;100.00;100686.34;5041909;28;20135;-64
2023/12/23 09:14:50;;;;;;;10.02;2.45;;;;;;;8.82;100.00;100683.56;5038802;28;20037;-65
2023/12/23 09:17:16;;;;;;;16.10;2.30;;;;;;;8.71;100.00;100680.97;5044303;28;20033;-66
2023/12/23 09:19:41;;;;;;;13.77;2.70;;;;;;;8.62;100.00;100690.19;5047852;28;20131;-63
2023/12/23 09:22:07;;;;;;;13.65;2.55;;;;;;;8.57;100.00;100693.84;5050418;28;20025;-64
2023/12/23 09:24:33;;;;;;;14.02;3.00;;;;;;;8.55;100.00;100688.63;5052672;28;20029;-65
2023/12/23 09:26:58;;;;;;;14.10;2.65;;;;;;;8.51;100.00;100703.28;5053559;28;20471;-65
2023/12/23 09:29:23;;;;;;;19.73;3.10;;;;;;;8.53;100.00;100692.81;5042061;28;20590;-64
2023/12/23 09:31:48;;;;;;;14.10;2.92;;;;;;;8.49;100.00;100684.31;5036227;28;20026;-65
2023/12/23 09:34:14;;;;;;;12.90;2.67;;;;;;;8.52;100.00;100691.16;5038814;28;20025;-64
2023/12/23 09:36:39;;;;;;;16.60;2.92;;;;;;;8.55;100.00;100696.91;5055784;28;20024;-66
2023/12/23 09:39:04;;;;;;;15.05;2.60;;;;;;;8.56;100.00;100703.22;5048836;28;20552;-65
2023/12/23 09:41:32;;;;;;;10.02;2.38;;;;;;;8.60;100.00;100697.97;5050403;28;20044;-65
2023/12/23 09:43:57;;;;;;;15.35;2.83;;;;;;;8.59;100.00;100699.88;5045250;28;20029;-64
2023/12/23 09:46:23;;;;;;;15.07;2.70;;;;;;;8.57;100.00;100713.97;5049397;28;20031;-64
2023/12/23 09:48:48;;;;;;;14.43;2.55;;;;;;;8.64;100.00;100693.47;5057470;28;20056;-64
2023/12/23 09:51:15;;;;;;;16.73;2.47;;;;;;;8.58;100.00;100703.75;5054065;28;20032;-64
2023/12/23 09:53:44;;;;;;;16.67;2.88;;;;;;;8.64;100.00;100710.03;5048423;28;20079;-64
2023/12/23 09:56:10;;;;;;;15.13;2.30;;;;;;;8.71;100.00;100710.47;5048025;28;20037;-65
2023/12/23 09:58:36;;;;;;;22.35;3.45;;;;;;;8.74;100.00;100716.19;5047271;28;20049;-65
2023/12/23 10:01:01;;;;;;;12.77;2.60;;;;;;;8.78;100.00;100718.38;5044063;28;20030;-65
2023/12/23 10:03:28;;;;;;;14.50;2.50;;;;;;;8.77;100.00;100728.59;5035915;28;20029;-65
2023/12/23 10:05:59;;;;;;;14.10;2.45;;;;;;;8.80;100.00;100728.00;5036522;28;20038;-64
2023/12/23 10:08:24;;;;;;;12.45;2.40;;;;;;;8.82;100.00;100727.72;5035342;28;20025;-63
2023/12/23 10:10:49;;;;;;;11.15;2.78;;;;;;;8.84;100.00;100742.84;5041083;28;20028;-65
2023/12/23 10:13:16;;;;;;;19.90;2.85;;;;;;;8.83;100.00;100724.66;5040663;28;20495;-65
2023/12/23 10:15:41;;;;;;;15.25;2.45;;;;;;;8.86;100.00;100737.84;5036091;28;20021;-65
2023/12/23 10:18:11;;;;;;;12.57;2.38;;;;;;;8.87;100.00;100724.88;5030636;28;20030;-65
2023/12/23 10:20:36;;;;;;;17.35;3.08;;;;;;;8.90;100.00;100733.38;5045246;28;20032;-64
2023/12/23 10:23:02;;;;;;;15.95;2.70;;;;;;;8.92;100.00;100732.25;5048068;28;20040;-66
2023/12/23 10:25:27;;;;;;;12.00;2.20;;;;;;;8.96;100.00;100714.81;5036067;28;20036;-64
2023/12/23 10:27:57;;;;;;;14.80;2.95;;;;;;;9.00;100.00;100720.53;5039157;28;20034;-64
2023/12/23 10:30:24;;;;;;;14.52;2.20;;;;;;;9.04;100.00;100716.06;5034204;28;20104;-63
2023/12/23 10:32:53;;;;;;;13.55;2.50;;;;;;;9.03;100.00;100700.63;5038435;28;20061;-65
2023/12/23 10:35:19;;;;;;;12.10;2.40;;;;;;;9.13;100.00;100730.84;5038708;28;20072;-65
2023/12/23 10:37:45;;;;;;;13.77;2.40;;;;;;;9.13;100.00;100718.97;5035386;28;20025;-64
2023/12/23 10:40:18;;;;;;;16.70;2.45;;;;;;;9.14;100.00;100735.25;5046215;28;20121;-64
2023/12/23 10:42:45;;;;;;;14.93;2.25;;;;;;;9.14;100.00;100710.41;5042892;28;20115;-64
2023/12/23 10:45:11;;;;;;;10.88;2.65;;;;;;;9.15;100.00;100706.53;5044985;28;20068;-65
2023/12/23 10:47:37;;;;;;;16.92;2.35;;;;;;;9.21;100.00;100727.41;5047857;28;20030;-64
2023/12/23 10:50:04;;;;;;;15.88;2.20;;;;;;;9.31;100.00;100714.56;5039717;28;20521;-65
2023/12/23 10:52:30;;;;;;;14.27;2.65;;;;;;;9.31;100.00;100707.09;5042122;28;20120;-64
2023/12/23 10:54:55;;;;;;;15.27;2.70;;;;;;;9.39;100.00;100707.53;5041363;28;20037;-64
2023/12/23 10:57:22;;;;;;;15.85;2.55;;;;;;;9.41;100.00;100714.41;5038712;28;20049;-65
2023/12/23 10:59:49;;;;;;;10.00;2.20;;;;;;;9.49;100.00;100708.19;5043629;28;20489;-65
2023/12/23 11:02:18;;;;;;;15.60;3.35;;;;;;;9.54;100.00;100704.50;5043911;28;20013;-64
2023/12/23 11:04:48;;;;;;;11.75;2.03;;;;;;;9.52;100.00;100704.81;5040913;28;20025;-65
2023/12/23 11:07:16;;;;;;;10.43;2.35;;;;;;;9.59;100.00;100711.88;5037495;28;20576;-65
2023/12/23 11:09:44;;;;;;;11.68;2.50;;;;;;;9.61;100.00;100709.66;5039419;28;20030;-65